createdAt,value
2023-08-13T00:00:03.266Z,97259.44
2023-08-13T00:02:35.632Z,97260.59
2023-08-13T00:05:06.303Z,97264.41
2023-08-13T00:07:35.220Z,97271.19
2023-08-13T00:10:05.026Z,97268.06
2023-08-13T00:12:34.008Z,97281.31
2023-08-13T00:15:02.940Z,97277.19
2023-08-13T00:17:32.600Z,97272.38
2023-08-13T00:20:01.462Z,97273.09
2023-08-13T00:22:32.258Z,97280.16
2023-08-13T00:25:01.132Z,97284.47
2023-08-13T00:27:30.451Z,97286.41
2023-08-13T00:29:59.712Z,97282.88
2023-08-13T00:32:28.466Z,97287.91
2023-08-13T00:34:57.477Z,97270.66
2023-08-13T00:37:26.246Z,97278.41
2023-08-13T00:39:56.335Z,97280.00
2023-08-13T00:42:25.321Z,97280.00
2023-08-13T00:44:54.409Z,97281.88
2023-08-13T00:47:23.395Z,97274.81
2023-08-13T00:49:52.432Z,97282.66
2023-08-13T00:52:21.372Z,97282.28
2023-08-13T00:54:50.238Z,97278.41
2023-08-13T00:57:20.709Z,97282.72
2023-08-13T00:59:50.234Z,97290.13
2023-08-13T01:02:19.164Z,97281.13
2023-08-13T01:04:48.294Z,97277.13
2023-08-13T01:07:21.198Z,97280.38
2023-08-13T01:09:55.619Z,97277.28
2023-08-13T01:12:33.542Z,97279.63
2023-08-13T01:15:05.217Z,97278.94
2023-08-13T01:17:37.186Z,97286.00
2023-08-13T01:20:07.117Z,97281.34
2023-08-13T01:22:41.479Z,97275.06
2023-08-13T01:25:13.730Z,97280.53
2023-08-13T01:27:47.892Z,97278.63
2023-08-13T01:30:22.760Z,97278.94
2023-08-13T01:32:54.938Z,97269.50
2023-08-13T01:35:24.910Z,97263.25
2023-08-13T01:37:55.855Z,97273.38
2023-08-13T01:40:24.757Z,97269.84
2023-08-13T01:42:53.556Z,97272.59
2023-08-13T01:45:22.503Z,97273.03
2023-08-13T01:47:52.180Z,97268.72
2023-08-13T01:50:22.356Z,97274.19
2023-08-13T01:52:51.525Z,97272.16
2023-08-13T01:55:22.129Z,97278.34
2023-08-13T01:57:51.432Z,97274.00
2023-08-13T02:00:20.938Z,97275.53
2023-08-13T02:02:49.892Z,97275.88
2023-08-13T02:05:19.291Z,97276.97
2023-08-13T02:07:48.002Z,97282.78
2023-08-13T02:10:17.982Z,97286.69
2023-08-13T02:12:48.103Z,97283.69
2023-08-13T02:15:16.830Z,97287.47
2023-08-13T02:17:48.154Z,97286.19
2023-08-13T02:20:18.525Z,97281.59
2023-08-13T02:22:47.475Z,97277.00
2023-08-13T02:25:16.357Z,97277.78
2023-08-13T02:27:45.130Z,97282.38
2023-08-13T02:30:17.063Z,97278.69
2023-08-13T02:32:45.909Z,97271.81
2023-08-13T02:35:14.834Z,97272.09
2023-08-13T02:37:43.597Z,97268.72
2023-08-13T02:40:13.604Z,97273.81
2023-08-13T02:42:42.679Z,97277.00
2023-08-13T02:45:12.158Z,97267.22
2023-08-13T02:47:42.450Z,97266.78
2023-08-13T02:50:11.842Z,97262.50
2023-08-13T02:52:41.657Z,97261.59
2023-08-13T02:55:11.557Z,97261.16
2023-08-13T02:57:46.721Z,97263.09
2023-08-13T03:01:19.912Z,97263.06
2023-08-13T03:03:53.864Z,97267.09
2023-08-13T03:06:23.322Z,97273.34
2023-08-13T03:08:52.283Z,97268.59
2023-08-13T03:11:20.864Z,97258.13
2023-08-13T03:13:50.264Z,97262.94
2023-08-13T03:16:21.702Z,97268.84
2023-08-13T03:18:52.812Z,97272.63
2023-08-13T03:21:23.806Z,97267.97
2023-08-13T03:23:52.845Z,97272.97
2023-08-13T03:26:21.783Z,97269.78
2023-08-13T03:28:50.413Z,97275.25
2023-08-13T03:31:21.919Z,97279.81
2023-08-13T03:34:02.820Z,97275.94
2023-08-13T03:36:31.614Z,97283.59
2023-08-13T03:39:01.166Z,97268.72
2023-08-13T03:41:30.024Z,97281.53
2023-08-13T03:43:58.874Z,97287.06
2023-08-13T03:46:28.044Z,97282.41
2023-08-13T03:48:56.925Z,97279.66
2023-08-13T03:51:28.268Z,97280.03
2023-08-13T03:53:57.758Z,97277.66
2023-08-13T03:56:29.208Z,97279.94
2023-08-13T03:58:59.101Z,97280.63
2023-08-13T04:01:29.336Z,97284.50
2023-08-13T04:03:59.144Z,97280.53
2023-08-13T04:06:30.566Z,97277.69
2023-08-13T04:08:59.724Z,97272.16
2023-08-13T04:11:28.753Z,97284.09
2023-08-13T04:13:57.626Z,97283.19
2023-08-13T04:16:26.553Z,97280.47
2023-08-13T04:18:55.697Z,97281.03
2023-08-13T04:21:26.951Z,97281.81
2023-08-13T04:23:58.412Z,97282.53
2023-08-13T04:26:27.555Z,97278.88
2023-08-13T04:28:59.148Z,97275.72
2023-08-13T04:31:29.309Z,97275.72
2023-08-13T04:33:58.414Z,97275.72
2023-08-13T04:36:27.572Z,97273.78
2023-08-13T04:38:57.924Z,97278.66
2023-08-13T04:41:27.662Z,97275.50
2023-08-13T04:43:56.622Z,97279.25
2023-08-13T04:46:25.690Z,97280.84
2023-08-13T04:48:59.602Z,97289.13
2023-08-13T04:51:30.312Z,97288.00
2023-08-13T04:54:01.259Z,97276.31
2023-08-13T04:56:32.440Z,97277.19
2023-08-13T04:59:02.288Z,97272.53
2023-08-13T05:01:31.413Z,97266.75
2023-08-13T05:04:01.617Z,97269.56
2023-08-13T05:06:32.917Z,97272.38
2023-08-13T05:09:04.525Z,97259.56
2023-08-13T05:11:34.166Z,97260.25
2023-08-13T05:14:02.836Z,97262.66
2023-08-13T05:16:31.849Z,97267.41
2023-08-13T05:19:00.647Z,97271.81
2023-08-13T05:21:30.637Z,97269.31
2023-08-13T05:23:59.573Z,97270.59
2023-08-13T05:26:29.874Z,97276.81
2023-08-13T05:28:58.714Z,97285.09
2023-08-13T05:31:27.611Z,97291.13
2023-08-13T05:33:59.022Z,97279.53
2023-08-13T05:36:28.084Z,97284.41
2023-08-13T05:38:57.521Z,97282.91
2023-08-13T05:41:26.398Z,97282.22
2023-08-13T05:43:57.903Z,97279.13
2023-08-13T05:46:26.890Z,97283.09
2023-08-13T05:48:56.091Z,97278.69
2023-08-13T05:51:25.368Z,97278.44
2023-08-13T05:53:53.971Z,97270.03
2023-08-13T05:56:22.749Z,97270.09
2023-08-13T05:58:51.465Z,97278.06
2023-08-13T06:01:21.826Z,97279.63
2023-08-13T06:03:50.998Z,97286.88
2023-08-13T06:06:21.963Z,97287.06
2023-08-13T06:08:51.215Z,97281.16
2023-08-13T06:11:20.724Z,97270.78
2023-08-13T06:13:49.457Z,97277.22
2023-08-13T06:16:18.461Z,97277.47
2023-08-13T06:18:48.791Z,97278.81
2023-08-13T06:21:18.227Z,97280.56
2023-08-13T06:23:47.680Z,97275.28
2023-08-13T06:26:16.444Z,97264.47
2023-08-13T06:28:45.250Z,97270.56
2023-08-13T06:31:25.651Z,97258.59
2023-08-13T06:34:04.709Z,97268.53
2023-08-13T06:36:33.528Z,97268.72
2023-08-13T06:39:02.758Z,97266.88
2023-08-13T06:41:31.666Z,97256.91
2023-08-13T06:44:05.130Z,97257.78
2023-08-13T06:46:34.170Z,97262.16
2023-08-13T06:49:04.937Z,97261.91
2023-08-13T06:51:33.785Z,97253.44
2023-08-13T06:54:02.927Z,97252.03
2023-08-13T06:56:32.796Z,97247.34
2023-08-13T06:59:04.400Z,97245.13
2023-08-13T07:01:34.972Z,97247.56
2023-08-13T07:04:07.525Z,97250.81
2023-08-13T07:06:37.309Z,97258.41
2023-08-13T07:09:08.272Z,97260.50
2023-08-13T07:11:37.839Z,97256.59
2023-08-13T07:14:07.199Z,97254.81
2023-08-13T07:16:37.401Z,97246.31
2023-08-13T07:19:09.354Z,97247.78
2023-08-13T07:21:38.843Z,97251.44
2023-08-13T07:24:08.363Z,97260.22
2023-08-13T07:26:37.441Z,97258.41
2023-08-13T07:29:08.319Z,97257.81
2023-08-13T07:31:39.081Z,97258.78
2023-08-13T07:34:10.265Z,97261.31
2023-08-13T07:36:39.115Z,97252.47
2023-08-13T07:39:10.507Z,97251.47
2023-08-13T07:41:39.719Z,97256.19
2023-08-13T07:44:09.013Z,97239.47
2023-08-13T07:46:38.191Z,97250.53
2023-08-13T07:49:06.909Z,97249.50
2023-08-13T07:51:37.070Z,97247.28
2023-08-13T07:54:06.838Z,97235.69
2023-08-13T07:56:35.641Z,97242.91
2023-08-13T07:59:06.454Z,97241.88
2023-08-13T08:01:35.667Z,97247.03
2023-08-13T08:04:04.800Z,97247.19
2023-08-13T08:06:33.691Z,97244.97
2023-08-13T08:09:06.701Z,97245.78
2023-08-13T08:11:36.123Z,97241.94
2023-08-13T08:14:05.418Z,97243.56
2023-08-13T08:16:35.571Z,97241.53
2023-08-13T08:19:05.379Z,97235.75
2023-08-13T08:21:34.419Z,97232.56
2023-08-13T08:24:05.079Z,97238.94
2023-08-13T08:26:34.022Z,97236.66
2023-08-13T08:29:02.883Z,97239.16
2023-08-13T08:31:31.953Z,97241.69
2023-08-13T08:34:01.090Z,97238.63
2023-08-13T08:36:30.051Z,97230.94
2023-08-13T08:38:59.141Z,97228.28
2023-08-13T08:41:30.791Z,97223.25
2023-08-13T08:44:00.511Z,97233.88
2023-08-13T08:46:31.152Z,97227.13
2023-08-13T08:49:01.755Z,97237.44
2023-08-13T08:51:30.955Z,97241.41
2023-08-13T08:54:00.747Z,97244.94
2023-08-13T08:56:31.179Z,97243.03
2023-08-13T08:59:00.222Z,97247.06
2023-08-13T09:01:29.123Z,97249.47
2023-08-13T09:03:58.287Z,97239.38
2023-08-13T09:06:56.776Z,97248.06
2023-08-13T09:09:26.253Z,97244.97
2023-08-13T09:11:57.168Z,97235.59
2023-08-13T09:14:27.294Z,97237.06
2023-08-13T09:16:58.227Z,97230.44
2023-08-13T09:19:28.523Z,97214.38
2023-08-13T09:22:03.587Z,97226.97
2023-08-13T09:24:36.871Z,97222.25
2023-08-13T09:27:09.093Z,97211.75
2023-08-13T09:29:38.958Z,97203.53
2023-08-13T09:32:08.824Z,97210.25
2023-08-13T09:34:38.659Z,97204.44
2023-08-13T09:37:07.722Z,97195.84
2023-08-13T09:39:36.543Z,97182.50
2023-08-13T09:42:08.353Z,97188.84
2023-08-13T09:44:38.527Z,97183.44
2023-08-13T09:47:09.871Z,97183.09
2023-08-13T09:49:40.043Z,97180.34
2023-08-13T09:52:10.032Z,97191.34
2023-08-13T09:54:43.688Z,97180.75
2023-08-13T09:57:17.030Z,97181.19
2023-08-13T09:59:47.332Z,97181.13
2023-08-13T10:02:17.500Z,97188.25
2023-08-13T10:04:47.438Z,97191.41
2023-08-13T10:07:19.105Z,97184.34
2023-08-13T10:09:58.341Z,97181.97
2023-08-13T10:12:38.532Z,97178.47
2023-08-13T10:15:09.655Z,97182.03
2023-08-13T10:17:38.965Z,97174.59
2023-08-13T10:20:09.432Z,97178.19
2023-08-13T10:22:40.140Z,97175.84
2023-08-13T10:25:12.124Z,97182.91
2023-08-13T10:27:46.810Z,97178.19
2023-08-13T10:30:17.154Z,97178.19
2023-08-13T10:32:54.245Z,97180.56
2023-08-13T10:35:25.036Z,97172.72
2023-08-13T10:37:55.975Z,97177.44
2023-08-13T10:40:25.472Z,97165.69
2023-08-13T10:42:56.589Z,97168.03
2023-08-13T10:45:26.694Z,97160.16
2023-08-13T10:47:57.898Z,97164.88
2023-08-13T10:50:33.387Z,97163.34
2023-08-13T10:53:09.716Z,97161.38
2023-08-13T10:55:41.818Z,97165.69
2023-08-13T10:58:24.582Z,97164.50
2023-08-13T11:00:54.025Z,97163.72
2023-08-13T11:03:25.489Z,97143.66
2023-08-13T11:05:56.351Z,97145.97
2023-08-13T11:08:45.669Z,97152.31
2023-08-13T11:11:17.550Z,97147.56
2023-08-13T11:13:49.381Z,97142.81
2023-08-13T11:16:18.778Z,97145.16
2023-08-13T11:18:48.486Z,97143.19
2023-08-13T11:21:17.527Z,97142.03
2023-08-13T11:23:47.287Z,97135.72
2023-08-13T11:26:18.623Z,97134.91
2023-08-13T11:28:49.489Z,97135.66
2023-08-13T11:31:18.467Z,97141.19
2023-08-13T11:33:51.297Z,97133.69
2023-08-13T11:36:20.503Z,97130.06
2023-08-13T11:38:49.879Z,97125.38
2023-08-13T11:41:19.368Z,97129.38
2023-08-13T11:43:56.362Z,97124.56
2023-08-13T11:46:25.980Z,97127.63
2023-08-13T11:48:56.084Z,97125.28
2023-08-13T11:51:26.355Z,97122.53
2023-08-13T11:53:55.284Z,97118.59
2023-08-13T11:56:25.208Z,97122.09
2023-08-13T11:58:55.715Z,97118.13
2023-08-13T12:01:26.597Z,97118.91
2023-08-13T12:03:56.371Z,97115.34
2023-08-13T12:06:25.318Z,97116.84
2023-08-13T12:08:54.857Z,97123.50
2023-08-13T12:11:23.628Z,97121.09
2023-08-13T12:13:53.047Z,97126.63
2023-08-13T12:16:23.226Z,97115.53
2023-08-13T12:18:52.521Z,97109.56
2023-08-13T12:21:21.780Z,97108.44
2023-08-13T12:23:50.913Z,97097.63
2023-08-13T12:26:20.138Z,97100.34
2023-08-13T12:28:51.812Z,97105.88
2023-08-13T12:31:26.413Z,97094.41
2023-08-13T12:33:55.516Z,97093.22
2023-08-13T12:36:24.469Z,97093.22
2023-08-13T12:38:53.236Z,97095.25
2023-08-13T12:41:34.422Z,97089.25
2023-08-13T12:44:08.615Z,97079.00
2023-08-13T12:46:39.494Z,97079.03
2023-08-13T12:49:09.176Z,97080.19
2023-08-13T12:51:38.158Z,97066.66
2023-08-13T12:54:07.035Z,97072.53
2023-08-13T12:56:35.855Z,97059.53
2023-08-13T12:59:06.448Z,97058.25
2023-08-13T13:01:35.326Z,97054.25
2023-08-13T13:04:05.815Z,97044.75
2023-08-13T13:06:34.772Z,97049.03
2023-08-13T13:09:03.257Z,97050.03
2023-08-13T13:11:31.900Z,97049.22
2023-08-13T13:14:00.474Z,97046.91
2023-08-13T13:16:29.640Z,97049.22
2023-08-13T13:18:58.962Z,97047.66
2023-08-13T13:21:29.386Z,97041.69
2023-08-13T13:23:59.615Z,97040.09
2023-08-13T13:26:28.822Z,97038.38
2023-08-13T13:28:57.933Z,97033.97
2023-08-13T13:31:27.294Z,97034.03
2023-08-13T13:33:56.222Z,97040.75
2023-08-13T13:36:25.413Z,97039.88
2023-08-13T13:38:55.867Z,97033.00
2023-08-13T13:41:25.519Z,97027.31
2023-08-13T13:43:54.575Z,97025.72
2023-08-13T13:46:23.771Z,97027.81
2023-08-13T13:48:52.796Z,97020.66
2023-08-13T13:51:22.839Z,97018.03
2023-08-13T13:53:51.817Z,97006.84
2023-08-13T13:56:22.303Z,97014.44
2023-08-13T13:58:52.529Z,97012.31
2023-08-13T14:01:21.788Z,97004.44
2023-08-13T14:03:51.858Z,97012.66
2023-08-13T14:06:21.569Z,97011.00
2023-08-13T14:08:50.441Z,97010.00
2023-08-13T14:11:18.997Z,97009.50
2023-08-13T14:13:49.317Z,97002.66
2023-08-13T14:16:18.618Z,96995.75
2023-08-13T14:18:47.458Z,96998.34
2023-08-13T14:21:16.518Z,96986.81
2023-08-13T14:23:46.086Z,96998.22
2023-08-13T14:26:15.053Z,96999.03
2023-08-13T14:28:43.581Z,96988.66
2023-08-13T14:31:13.829Z,96985.06
2023-08-13T14:33:42.441Z,96975.84
2023-08-13T14:36:12.316Z,96975.25
2023-08-13T14:38:41.104Z,96980.50
2023-08-13T14:41:09.991Z,96978.63
2023-08-13T14:43:40.783Z,96983.03
2023-08-13T14:46:09.930Z,96985.06
2023-08-13T14:48:40.547Z,96983.59
2023-08-13T14:51:09.665Z,96990.59
2023-08-13T14:53:38.676Z,96982.28
2023-08-13T14:56:07.811Z,96989.09
2023-08-13T14:58:36.871Z,96990.22
2023-08-13T15:01:05.948Z,96993.25
2023-08-13T15:03:35.139Z,96986.63
2023-08-13T15:06:06.140Z,96992.00
2023-08-13T15:08:35.202Z,96991.72
2023-08-13T15:11:04.489Z,96986.06
2023-08-13T15:13:34.641Z,96991.91
2023-08-13T15:16:03.622Z,96985.88
2023-08-13T15:18:32.569Z,96981.19
2023-08-13T15:21:01.820Z,96982.06
2023-08-13T15:23:32.099Z,96975.19
2023-08-13T15:26:00.759Z,96974.25
2023-08-13T15:28:29.783Z,96970.28
2023-08-13T15:30:59.203Z,96970.44
2023-08-13T15:33:27.978Z,96972.72
2023-08-13T15:35:58.820Z,96976.72
2023-08-13T15:38:28.918Z,96976.97
2023-08-13T15:41:00.627Z,96977.06
2023-08-13T15:43:29.856Z,96967.66
2023-08-13T15:45:59.502Z,96972.53
2023-08-13T15:48:28.586Z,96972.53
2023-08-13T15:50:57.673Z,96970.22
2023-08-13T15:53:26.659Z,96961.53
2023-08-13T15:55:55.904Z,96964.78
2023-08-13T15:58:26.311Z,96968.09
2023-08-13T16:00:56.791Z,96983.41
2023-08-13T16:03:25.635Z,96972.88
2023-08-13T16:05:55.007Z,96976.88
2023-08-13T16:08:24.050Z,96977.75
2023-08-13T16:10:58.806Z,96990.53
2023-08-13T16:13:29.950Z,96985.94
2023-08-13T16:15:58.991Z,96981.31
2023-08-13T16:18:28.006Z,96979.69
2023-08-13T16:20:56.874Z,96969.56
2023-08-13T16:23:26.029Z,96976.00
2023-08-13T16:25:55.526Z,96968.56
2023-08-13T16:28:24.779Z,96995.06
2023-08-13T16:30:55.185Z,97010.53
2023-08-13T16:33:24.327Z,97014.81
2023-08-13T16:35:53.314Z,97004.66
2023-08-13T16:38:22.293Z,97005.38
2023-08-13T16:40:52.186Z,97020.41
2023-08-13T16:43:21.667Z,96988.84
2023-08-13T16:45:50.869Z,96968.75
2023-08-13T16:48:21.257Z,96971.63
2023-08-13T16:50:50.398Z,96977.72
2023-08-13T16:53:20.413Z,96985.28
2023-08-13T16:55:49.541Z,97001.78
2023-08-13T16:58:19.252Z,97027.75
2023-08-13T17:00:49.185Z,97036.53
2023-08-13T17:03:19.090Z,97027.53
2023-08-13T17:05:54.199Z,97024.41
2023-08-13T17:08:23.438Z,97011.00
2023-08-13T17:10:52.822Z,97005.91
2023-08-13T17:13:21.900Z,96992.16
2023-08-13T17:15:50.783Z,96983.88
2023-08-13T17:18:19.619Z,96972.44
2023-08-13T17:20:50.000Z,96967.34
2023-08-13T17:23:19.082Z,96974.44
2023-08-13T17:25:49.939Z,96978.00
2023-08-13T17:28:18.926Z,96978.00
2023-08-13T17:30:48.066Z,96980.75
2023-08-13T17:33:18.203Z,96981.53
2023-08-13T17:35:47.200Z,96987.84
2023-08-13T17:38:18.378Z,96990.59
2023-08-13T17:40:47.895Z,96984.31
2023-08-13T17:43:16.868Z,96993.34
2023-08-13T17:45:46.051Z,97002.81
2023-08-13T17:48:16.456Z,97005.16
2023-08-13T17:50:47.095Z,97002.03
2023-08-13T17:53:17.487Z,97003.59
2023-08-13T17:55:46.512Z,97004.81
2023-08-13T17:58:15.384Z,97000.81
2023-08-13T18:00:45.078Z,97008.22
2023-08-13T18:03:18.468Z,96988.22
2023-08-13T18:05:47.585Z,96991.78
2023-08-13T18:08:18.336Z,96998.88
2023-08-13T18:10:46.983Z,96992.59
2023-08-13T18:13:16.303Z,96987.88
2023-08-13T18:15:45.451Z,96989.84
2023-08-13T18:18:14.840Z,96979.59
2023-08-13T18:20:43.920Z,96973.31
2023-08-13T18:23:12.860Z,96968.22
2023-08-13T18:25:43.220Z,96960.72
2023-08-13T18:28:12.685Z,96961.13
2023-08-13T18:30:42.126Z,96968.59
2023-08-13T18:33:10.626Z,96956.03
2023-08-13T18:35:39.524Z,96950.91
2023-08-13T18:38:08.497Z,96955.22
2023-08-13T18:40:37.509Z,96965.84
2023-08-13T18:43:07.633Z,96972.13
2023-08-13T18:45:36.520Z,96972.13
2023-08-13T18:48:06.289Z,96975.25
2023-08-13T18:50:35.810Z,96972.13
2023-08-13T18:53:05.332Z,96977.63
2023-08-13T18:55:34.857Z,96987.78
2023-08-13T18:58:04.179Z,96994.88
2023-08-13T19:00:34.573Z,97003.47
2023-08-13T19:03:04.054Z,97023.91
2023-08-13T19:05:33.022Z,97043.50
2023-08-13T19:08:02.085Z,97047.81
2023-08-13T19:10:31.180Z,97050.94
2023-08-13T19:13:01.107Z,97049.78
2023-08-13T19:15:30.120Z,97046.63
2023-08-13T19:18:00.631Z,97035.22
2023-08-13T19:20:30.065Z,97035.63
2023-08-13T19:22:59.447Z,97041.88
2023-08-13T19:25:28.533Z,97052.88
2023-08-13T19:27:57.517Z,97072.06
2023-08-13T19:30:26.545Z,97072.84
2023-08-13T19:32:58.892Z,97072.44
2023-08-13T19:35:29.702Z,97059.44
2023-08-13T19:37:58.620Z,97059.06
2023-08-13T19:40:27.635Z,97073.19
2023-08-13T19:42:59.484Z,97071.19
2023-08-13T19:45:29.244Z,97078.63
2023-08-13T19:48:00.024Z,97091.53
2023-08-13T19:50:32.480Z,97098.13
2023-08-13T19:53:01.528Z,97099.66
2023-08-13T19:55:31.456Z,97101.19
2023-08-13T19:58:02.668Z,97107.41
2023-08-13T20:00:31.892Z,97088.53
2023-08-13T20:03:01.007Z,97085.47
2023-08-13T20:05:32.485Z,97094.09
2023-08-13T20:08:01.764Z,97101.13
2023-08-13T20:10:30.969Z,97108.78
2023-08-13T20:13:00.449Z,97113.94
2023-08-13T20:15:30.036Z,97120.00
2023-08-13T20:17:59.187Z,97115.25
2023-08-13T20:20:27.940Z,97102.97
2023-08-13T20:22:58.097Z,97095.88
2023-08-13T20:25:27.607Z,97078.34
2023-08-13T20:27:56.424Z,97060.78
2023-08-13T20:30:25.375Z,97045.16
2023-08-13T20:32:54.067Z,97026.25
2023-08-13T20:35:23.705Z,97041.97
2023-08-13T20:37:52.550Z,97054.09
2023-08-13T20:40:22.976Z,97063.91
2023-08-13T20:42:51.962Z,97076.50
2023-08-13T20:45:23.334Z,97055.34
2023-08-13T20:47:52.411Z,97048.28
2023-08-13T20:50:21.713Z,97052.88
2023-08-13T20:52:50.820Z,97043.44
2023-08-13T20:55:19.744Z,97048.91
2023-08-13T20:57:50.697Z,97053.31
2023-08-13T21:00:23.000Z,97063.94
2023-08-13T21:02:51.989Z,97067.09
2023-08-13T21:05:20.958Z,97072.59
2023-08-13T21:07:50.457Z,97072.59
2023-08-13T21:10:19.163Z,97076.13
2023-08-13T21:12:49.631Z,97076.59
2023-08-13T21:15:18.752Z,97074.63
2023-08-13T21:17:47.839Z,97060.25
2023-08-13T21:20:17.209Z,97062.63
2023-08-13T21:22:46.176Z,97069.34
2023-08-13T21:25:17.019Z,97080.31
2023-08-13T21:27:45.824Z,97074.09
2023-08-13T21:30:16.973Z,97075.66
2023-08-13T21:32:47.263Z,97074.09
2023-08-13T21:35:16.282Z,97090.56
2023-08-13T21:37:44.890Z,97107.25
2023-08-13T21:40:14.203Z,97125.25
2023-08-13T21:42:42.915Z,97127.00
2023-08-13T21:45:12.106Z,97135.28
2023-08-13T21:47:42.713Z,97141.03
2023-08-13T21:50:12.236Z,97151.06
2023-08-13T21:52:42.499Z,97155.72
2023-08-13T21:55:11.983Z,97154.78
2023-08-13T21:57:40.523Z,97173.16
2023-08-13T22:00:14.772Z,97185.16
2023-08-13T22:02:46.779Z,97193.13
2023-08-13T22:05:15.606Z,97211.44
2023-08-13T22:07:44.661Z,97210.22
2023-08-13T22:10:13.741Z,97220.75
2023-08-13T22:12:42.515Z,97216.00
2023-08-13T22:15:12.105Z,97228.88
2023-08-13T22:17:41.937Z,97219.06
2023-08-13T22:20:13.373Z,97223.78
2023-08-13T22:22:42.519Z,97221.72
2023-08-13T22:25:13.343Z,97220.22
2023-08-13T22:27:42.097Z,97232.31
2023-08-13T22:30:11.898Z,97238.69
2023-08-13T22:32:41.538Z,97237.19
2023-08-13T22:35:12.112Z,97238.09
2023-08-13T22:37:40.929Z,97232.75
2023-08-13T22:40:11.319Z,97231.16
2023-08-13T22:42:40.308Z,97233.34
2023-08-13T22:45:10.248Z,97227.13
2023-08-13T22:47:39.247Z,97231.03
2023-08-13T22:50:09.745Z,97223.19
2023-08-13T22:52:41.928Z,97218.44
2023-08-13T22:55:11.925Z,97220.84
2023-08-13T22:57:41.235Z,97203.22
2023-08-13T23:00:11.627Z,97205.56
2023-08-13T23:02:40.184Z,97215.38
2023-08-13T23:05:10.912Z,97212.31
2023-08-13T23:07:41.445Z,97204.56
2023-08-13T23:10:10.133Z,97203.84
2023-08-13T23:12:38.886Z,97199.81
2023-08-13T23:15:08.879Z,97199.72
2023-08-13T23:17:38.035Z,97196.94
2023-08-13T23:20:08.410Z,97192.63
2023-08-13T23:22:37.214Z,97191.47
2023-08-13T23:25:09.999Z,97190.31
2023-08-13T23:27:41.572Z,97186.41
2023-08-13T23:30:12.029Z,97182.50
2023-08-13T23:32:41.073Z,97177.66
2023-08-13T23:35:10.528Z,97178.50
2023-08-13T23:37:39.736Z,97166.03
2023-08-13T23:40:11.268Z,97158.19
2023-08-13T23:42:40.102Z,97148.81
2023-08-13T23:45:09.298Z,97155.91
2023-08-13T23:47:38.141Z,97154.75
2023-08-13T23:50:07.975Z,97149.63
2023-08-13T23:52:36.979Z,97147.31
2023-08-13T23:55:07.383Z,97137.09
2023-08-13T23:57:37.743Z,97134.78
